createdAt,value
2023-02-14T00:01:27.954Z,84.81
2023-02-14T00:04:00.901Z,84.74
2023-02-14T00:06:32.788Z,84.85
2023-02-14T00:09:03.287Z,84.95
2023-02-14T00:11:33.135Z,84.84
2023-02-14T00:14:15.753Z,84.94
2023-02-14T00:16:48.238Z,85.18
2023-02-14T00:19:20.216Z,85.14
2023-02-14T00:21:50.608Z,85.30
2023-02-14T00:24:23.144Z,85.43
2023-02-14T00:26:54.187Z,85.54
2023-02-14T00:29:26.147Z,85.41
2023-02-14T00:31:59.263Z,85.81
2023-02-14T00:34:29.978Z,85.84
2023-02-14T00:37:00.589Z,85.60
2023-02-14T00:39:30.481Z,86.00
2023-02-14T00:42:00.567Z,85.99
2023-02-14T00:44:30.363Z,86.06
2023-02-14T00:47:02.883Z,85.86
2023-02-14T00:49:32.939Z,86.08
2023-02-14T00:52:03.098Z,86.00
2023-02-14T00:54:33.018Z,86.13
2023-02-14T00:57:02.787Z,86.49
2023-02-14T00:59:32.839Z,86.40
2023-02-14T01:02:05.802Z,86.45
2023-02-14T01:04:35.992Z,86.28
2023-02-14T01:07:05.767Z,86.18
2023-02-14T01:09:36.004Z,86.29
2023-02-14T01:12:07.088Z,86.22
2023-02-14T01:14:37.004Z,86.05
2023-02-14T01:17:09.540Z,86.30
2023-02-14T01:19:42.523Z,85.93
2023-02-14T01:22:12.321Z,85.93
2023-02-14T01:24:42.171Z,85.79
2023-02-14T01:27:12.065Z,86.21
2023-02-14T01:29:41.895Z,86.33
2023-02-14T01:32:14.485Z,86.54
2023-02-14T01:34:44.473Z,86.33
2023-02-14T01:37:14.306Z,86.39
2023-02-14T01:39:47.124Z,86.73
2023-02-14T01:42:16.979Z,86.56
2023-02-14T01:45:02.323Z,86.67
2023-02-14T01:47:40.011Z,86.80
2023-02-14T01:50:14.245Z,86.75
2023-02-14T01:52:50.005Z,86.59
2023-02-14T01:55:23.848Z,86.42
2023-02-14T01:58:02.678Z,86.60
2023-02-14T02:00:44.880Z,86.63
2023-02-14T02:03:18.984Z,86.56
2023-02-14T02:05:51.579Z,86.78
2023-02-14T02:08:22.376Z,86.83
2023-02-14T02:10:52.221Z,86.92
2023-02-14T02:13:23.886Z,86.84
2023-02-14T02:16:10.859Z,86.98
2023-02-14T02:18:55.551Z,87.18
2023-02-14T02:21:56.288Z,87.11
2023-02-14T02:24:35.510Z,87.27
2023-02-14T02:27:21.971Z,87.12
2023-02-14T02:30:30.572Z,87.36
2023-02-14T02:33:27.647Z,86.97
2023-02-14T02:36:34.935Z,87.63
2023-02-14T02:39:18.749Z,87.52
2023-02-14T02:41:57.832Z,87.69
2023-02-14T02:44:37.739Z,87.61
2023-02-14T02:47:12.333Z,87.48
2023-02-14T02:50:03.066Z,87.26
2023-02-14T02:52:58.275Z,87.39
2023-02-14T02:55:53.795Z,87.29
2023-02-14T02:58:23.634Z,87.39
2023-02-14T03:00:56.542Z,87.10
2023-02-14T03:03:41.674Z,87.10
2023-02-14T03:06:12.118Z,86.95
2023-02-14T03:08:44.845Z,87.03
2023-02-14T03:11:16.630Z,87.11
2023-02-14T03:14:03.302Z,87.39
2023-02-14T03:16:42.440Z,87.17
2023-02-14T03:19:56.456Z,87.41
2023-02-14T03:22:40.689Z,87.19
2023-02-14T03:25:32.064Z,87.64
2023-02-14T03:28:13.732Z,87.68
2023-02-14T03:30:53.276Z,87.51
2023-02-14T03:33:28.871Z,87.63
2023-02-14T03:36:05.192Z,87.87
2023-02-14T03:38:39.472Z,87.81
2023-02-14T03:41:17.249Z,87.88
2023-02-14T03:43:52.458Z,87.68
2023-02-14T03:46:27.426Z,88.21
2023-02-14T03:48:59.239Z,88.15
2023-02-14T03:51:34.423Z,88.24
2023-02-14T03:54:07.665Z,88.11
2023-02-14T03:56:45.266Z,88.14
2023-02-14T03:59:18.411Z,88.33
2023-02-14T04:01:53.357Z,88.35
2023-02-14T04:04:28.216Z,88.35
2023-02-14T04:06:58.457Z,88.32
2023-02-14T04:09:28.219Z,88.76
2023-02-14T04:12:00.734Z,89.00
2023-02-14T04:14:30.918Z,88.71
2023-02-14T04:17:13.194Z,89.02
2023-02-14T04:19:42.999Z,89.30
2023-02-14T04:22:13.377Z,89.25
2023-02-14T04:24:43.278Z,88.90
2023-02-14T04:27:17.631Z,89.56
2023-02-14T04:29:49.655Z,89.52
2023-02-14T04:32:21.608Z,89.47
2023-02-14T04:34:52.315Z,89.50
2023-02-14T04:37:23.268Z,89.23
2023-02-14T04:39:53.158Z,89.27
2023-02-14T04:42:25.923Z,89.51
2023-02-14T04:44:55.718Z,89.23
2023-02-14T04:47:25.807Z,89.59
2023-02-14T04:49:56.032Z,89.41
2023-02-14T04:52:25.938Z,89.38
2023-02-14T04:54:55.834Z,89.66
2023-02-14T04:57:28.661Z,89.75
2023-02-14T04:59:58.538Z,89.70
2023-02-14T05:02:28.749Z,89.70
2023-02-14T05:04:58.525Z,89.64
2023-02-14T05:07:28.599Z,89.67
2023-02-14T05:09:58.549Z,89.88
2023-02-14T05:12:30.969Z,89.82
2023-02-14T05:15:01.070Z,89.65
2023-02-14T05:17:31.058Z,89.77
2023-02-14T05:20:00.861Z,89.96
2023-02-14T05:22:30.648Z,89.65
2023-02-14T05:25:00.468Z,89.82
2023-02-14T05:27:32.984Z,89.72
2023-02-14T05:30:02.977Z,89.93
2023-02-14T05:32:33.015Z,90.04
2023-02-14T05:35:02.871Z,90.22
2023-02-14T05:37:32.778Z,89.96
2023-02-14T05:40:02.680Z,90.19
2023-02-14T05:42:35.128Z,90.25
2023-02-14T05:45:07.077Z,90.38
2023-02-14T05:47:39.713Z,90.19
2023-02-14T05:50:11.036Z,90.46
2023-02-14T05:52:41.611Z,90.40
2023-02-14T05:55:20.408Z,90.40
2023-02-14T05:57:52.901Z,90.87
2023-02-14T06:00:24.737Z,91.17
2023-02-14T06:02:54.596Z,91.11
2023-02-14T06:05:24.885Z,91.13
2023-02-14T06:07:54.629Z,91.06
2023-02-14T06:10:27.619Z,91.05
2023-02-14T06:13:00.260Z,91.03
2023-02-14T06:15:30.356Z,91.18
2023-02-14T06:18:01.087Z,90.89
2023-02-14T06:20:31.055Z,90.74
2023-02-14T06:23:01.157Z,90.91
2023-02-14T06:25:31.052Z,90.96
2023-02-14T06:28:03.772Z,90.65
2023-02-14T06:30:33.712Z,90.96
2023-02-14T06:33:05.578Z,90.99
2023-02-14T06:35:35.425Z,91.14
2023-02-14T06:38:05.325Z,91.04
2023-02-14T06:40:35.518Z,91.16
2023-02-14T06:43:08.261Z,91.00
2023-02-14T06:45:38.384Z,91.15
2023-02-14T06:48:08.810Z,91.42
2023-02-14T06:50:38.709Z,91.45
2023-02-14T06:53:08.821Z,91.81
2023-02-14T06:55:38.857Z,91.85
2023-02-14T06:58:11.237Z,91.57
2023-02-14T07:00:41.138Z,92.20
2023-02-14T07:03:11.574Z,92.58
2023-02-14T07:05:41.481Z,92.81
2023-02-14T07:08:11.797Z,93.05
2023-02-14T07:10:41.829Z,93.65
2023-02-14T07:13:14.405Z,93.41
2023-02-14T07:15:44.313Z,93.80
2023-02-14T07:18:14.063Z,93.73
2023-02-14T07:20:45.091Z,94.99
2023-02-14T07:23:14.914Z,95.81
2023-02-14T07:25:45.125Z,96.29
2023-02-14T07:28:17.773Z,98.79
2023-02-14T07:30:47.829Z,98.69
2023-02-14T07:33:17.706Z,98.56
2023-02-14T07:35:47.774Z,98.75
2023-02-14T07:38:17.537Z,98.88
2023-02-14T07:40:47.316Z,99.55
2023-02-14T07:43:20.279Z,99.63
2023-02-14T07:45:50.060Z,100.00
2023-02-14T07:48:20.446Z,100.00
2023-02-14T07:50:50.921Z,100.00
2023-02-14T07:53:20.775Z,100.00
2023-02-14T07:55:52.143Z,100.00
2023-02-14T07:58:24.934Z,100.00
2023-02-14T08:00:54.801Z,100.00
2023-02-14T08:03:24.701Z,100.00
2023-02-14T08:05:57.408Z,100.00
2023-02-14T08:08:28.957Z,100.00
2023-02-14T08:10:59.502Z,100.00
2023-02-14T08:13:32.183Z,99.93
2023-02-14T08:16:09.817Z,99.42
2023-02-14T08:18:41.927Z,98.75
2023-02-14T08:21:13.936Z,98.28
2023-02-14T08:23:43.727Z,97.92
2023-02-14T08:26:13.797Z,97.50
2023-02-14T08:28:46.401Z,97.90
2023-02-14T08:31:21.333Z,97.92
2023-02-14T08:33:56.692Z,97.71
2023-02-14T08:36:26.475Z,97.32
2023-02-14T08:38:57.899Z,97.86
2023-02-14T08:41:28.025Z,98.23
2023-02-14T08:44:12.217Z,97.99
2023-02-14T08:46:42.166Z,97.76
2023-02-14T08:49:12.759Z,97.92
2023-02-14T08:51:42.519Z,97.72
2023-02-14T08:54:12.289Z,97.56
2023-02-14T08:56:42.499Z,97.59
2023-02-14T08:59:14.909Z,97.69
2023-02-14T09:01:44.787Z,97.74
2023-02-14T09:04:14.977Z,97.71
2023-02-14T09:06:44.904Z,98.23
2023-02-14T09:09:14.888Z,97.87
2023-02-14T09:11:47.761Z,98.15
2023-02-14T09:14:21.183Z,97.80
2023-02-14T09:16:51.067Z,97.46
2023-02-14T09:19:21.038Z,97.15
2023-02-14T09:21:50.918Z,97.28
2023-02-14T09:24:20.758Z,96.77
2023-02-14T09:26:50.843Z,97.18
2023-02-14T09:29:23.394Z,97.09
2023-02-14T09:31:55.789Z,96.35
2023-02-14T09:34:25.996Z,96.37
2023-02-14T09:36:56.032Z,94.40
2023-02-14T09:39:26.125Z,94.68
2023-02-14T09:42:20.099Z,94.95
2023-02-14T09:44:57.626Z,95.24
2023-02-14T09:47:37.179Z,94.90
2023-02-14T09:50:09.304Z,95.28
2023-02-14T09:52:39.141Z,93.59
2023-02-14T09:55:16.741Z,92.54
2023-02-14T09:58:01.923Z,92.32
2023-02-14T10:00:40.580Z,92.78
2023-02-14T10:03:31.803Z,92.88
2023-02-14T10:06:06.310Z,93.31
2023-02-14T10:08:50.248Z,92.49
2023-02-14T10:11:23.297Z,93.39
2023-02-14T10:13:58.147Z,92.82
2023-02-14T10:16:35.348Z,92.15
2023-02-14T10:19:08.974Z,92.02
2023-02-14T10:21:45.506Z,91.10
2023-02-14T10:24:20.730Z,90.83
2023-02-14T10:26:52.777Z,89.22
2023-02-14T10:29:23.170Z,88.46
2023-02-14T10:32:01.137Z,87.49
2023-02-14T10:34:40.530Z,87.87
2023-02-14T10:37:26.048Z,88.54
2023-02-14T10:40:21.212Z,88.47
2023-02-14T10:43:00.657Z,88.18
2023-02-14T10:45:39.205Z,88.41
2023-02-14T10:48:22.291Z,85.75
2023-02-14T10:50:59.981Z,87.72
2023-02-14T10:53:38.411Z,86.53
2023-02-14T10:56:12.242Z,87.41
2023-02-14T10:58:44.216Z,86.88
2023-02-14T11:01:18.571Z,84.44
2023-02-14T11:03:58.704Z,82.77
2023-02-14T11:06:28.523Z,84.47
2023-02-14T11:08:58.719Z,84.14
2023-02-14T11:11:35.086Z,82.82
2023-02-14T11:14:22.274Z,82.58
2023-02-14T11:16:54.619Z,82.47
2023-02-14T11:19:29.572Z,81.27
2023-02-14T11:22:01.268Z,83.11
2023-02-14T11:24:32.961Z,83.43
2023-02-14T11:27:05.594Z,83.22
2023-02-14T11:29:40.065Z,83.32
2023-02-14T11:32:12.380Z,81.39
2023-02-14T11:34:48.379Z,80.31
2023-02-14T11:37:29.406Z,80.03
2023-02-14T11:40:01.492Z,81.95
2023-02-14T11:42:43.574Z,79.40
2023-02-14T11:45:32.651Z,78.90
2023-02-14T11:48:34.913Z,77.69
2023-02-14T11:51:14.106Z,79.01
2023-02-14T11:53:49.198Z,76.61
2023-02-14T11:56:21.375Z,77.10
2023-02-14T11:58:56.037Z,78.38
2023-02-14T12:01:28.990Z,78.12
2023-02-14T12:04:02.250Z,75.80
2023-02-14T12:06:38.484Z,75.79
2023-02-14T12:09:16.641Z,76.24
2023-02-14T12:11:58.496Z,75.67
2023-02-14T12:14:33.239Z,75.41
2023-02-14T12:17:09.989Z,72.26
2023-02-14T12:19:48.668Z,74.23
2023-02-14T12:22:27.460Z,75.36
2023-02-14T12:25:05.594Z,74.31
2023-02-14T12:27:46.921Z,71.43
2023-02-14T12:30:19.796Z,70.36
2023-02-14T12:32:52.505Z,72.02
2023-02-14T12:35:33.904Z,73.04
2023-02-14T12:38:13.771Z,71.01
2023-02-14T12:40:54.307Z,73.09
2023-02-14T12:43:45.355Z,73.12
2023-02-14T12:46:31.766Z,72.45
2023-02-14T12:49:19.072Z,73.95
2023-02-14T12:51:57.335Z,73.22
2023-02-14T12:54:45.992Z,73.73
2023-02-14T12:57:30.638Z,73.72
2023-02-14T13:00:12.662Z,73.22
2023-02-14T13:02:57.826Z,74.36
2023-02-14T13:05:37.445Z,75.45
2023-02-14T13:08:20.514Z,73.44
2023-02-14T13:11:03.469Z,72.30
2023-02-14T13:13:45.930Z,72.96
2023-02-14T13:16:22.274Z,73.44
2023-02-14T13:18:57.068Z,73.83
2023-02-14T13:21:29.803Z,73.35
2023-02-14T13:24:06.779Z,73.33
2023-02-14T13:26:43.415Z,73.14
2023-02-14T13:29:16.531Z,73.34
2023-02-14T13:31:47.167Z,72.38
2023-02-14T13:34:28.529Z,69.84
2023-02-14T13:37:01.070Z,71.78
2023-02-14T13:39:38.493Z,71.51
2023-02-14T13:42:12.004Z,70.36
2023-02-14T13:44:46.533Z,66.36
2023-02-14T13:47:23.028Z,68.84
2023-02-14T13:49:57.646Z,69.78
2023-02-14T13:52:45.223Z,69.83
2023-02-14T13:55:22.090Z,69.47
2023-02-14T13:58:06.992Z,67.89
2023-02-14T14:00:42.916Z,69.75
2023-02-14T14:03:16.963Z,70.16
2023-02-14T14:06:02.919Z,69.72
2023-02-14T14:08:44.225Z,69.08
2023-02-14T14:11:30.406Z,70.62
2023-02-14T14:14:05.308Z,70.95
2023-02-14T14:16:37.290Z,71.11
2023-02-14T14:19:30.009Z,69.57
2023-02-14T14:22:05.653Z,69.92
2023-02-14T14:24:36.927Z,70.22
2023-02-14T14:27:15.175Z,69.60
2023-02-14T14:29:52.849Z,67.51
2023-02-14T14:32:28.235Z,68.61
2023-02-14T14:35:00.142Z,68.21
2023-02-14T14:37:31.608Z,66.66
2023-02-14T14:40:03.231Z,68.10
2023-02-14T14:42:39.045Z,67.95
2023-02-14T14:45:23.776Z,67.84
2023-02-14T14:47:56.266Z,69.19
2023-02-14T14:50:29.520Z,68.84
2023-02-14T14:53:03.641Z,68.77
2023-02-14T14:55:36.484Z,68.78
2023-02-14T14:58:09.026Z,69.03
2023-02-14T15:00:42.719Z,68.70
2023-02-14T15:03:18.811Z,68.58
2023-02-14T15:05:51.186Z,68.61
2023-02-14T15:08:27.947Z,68.53
2023-02-14T15:11:02.414Z,69.30
2023-02-14T15:13:49.952Z,69.31
2023-02-14T15:16:25.173Z,68.81
2023-02-14T15:19:00.112Z,69.00
2023-02-14T15:21:31.555Z,69.00
2023-02-14T15:24:01.567Z,69.00
2023-02-14T15:26:35.904Z,69.76
2023-02-14T15:29:07.967Z,69.76
2023-02-14T15:31:43.695Z,68.67
2023-02-14T15:34:15.137Z,69.48
2023-02-14T15:36:52.251Z,69.57
2023-02-14T15:39:25.733Z,69.85
2023-02-14T15:41:56.638Z,69.69
2023-02-14T15:44:29.116Z,70.19
2023-02-14T15:47:05.663Z,69.08
2023-02-14T15:49:38.545Z,69.68
2023-02-14T15:52:09.920Z,69.44
2023-02-14T15:54:41.924Z,69.96
2023-02-14T15:57:25.969Z,69.45
2023-02-14T15:59:56.816Z,70.35
2023-02-14T16:02:38.265Z,69.20
2023-02-14T16:05:12.161Z,70.08
2023-02-14T16:07:44.012Z,70.44
2023-02-14T16:10:24.446Z,69.70
2023-02-14T16:13:00.082Z,69.99
2023-02-14T16:15:31.925Z,70.02
2023-02-14T16:18:08.303Z,70.46
2023-02-14T16:20:47.451Z,70.82
2023-02-14T16:23:23.169Z,71.65
2023-02-14T16:25:53.926Z,71.96
2023-02-14T16:28:24.542Z,72.14
2023-02-14T16:30:58.702Z,71.60
2023-02-14T16:33:33.171Z,71.99
2023-02-14T16:36:09.597Z,72.74
2023-02-14T16:38:45.457Z,72.68
2023-02-14T16:41:24.215Z,72.05
2023-02-14T16:43:54.497Z,72.96
2023-02-14T16:46:26.362Z,73.26
2023-02-14T16:48:59.484Z,73.23
2023-02-14T16:51:32.421Z,73.61
2023-02-14T16:54:03.964Z,73.61
2023-02-14T16:56:40.243Z,73.55
2023-02-14T16:59:11.004Z,74.12
2023-02-14T17:01:41.120Z,74.43
2023-02-14T17:04:13.655Z,74.39
2023-02-14T17:06:48.906Z,74.41
2023-02-14T17:09:20.954Z,74.80
2023-02-14T17:11:53.898Z,75.12
2023-02-14T17:14:27.357Z,75.00
2023-02-14T17:16:58.106Z,75.12
2023-02-14T17:19:34.134Z,75.22
2023-02-14T17:22:04.609Z,75.57
2023-02-14T17:24:34.762Z,75.98
2023-02-14T17:27:04.603Z,76.00
2023-02-14T17:29:34.473Z,75.57
2023-02-14T17:32:04.348Z,75.53
2023-02-14T17:34:37.390Z,75.53
2023-02-14T17:37:07.273Z,76.02
2023-02-14T17:39:37.098Z,75.89
2023-02-14T17:42:07.380Z,76.12
2023-02-14T17:44:37.683Z,76.13
2023-02-14T17:47:07.835Z,76.37
2023-02-14T17:49:40.345Z,76.11
2023-02-14T17:52:10.481Z,76.35
2023-02-14T17:54:41.176Z,76.23
2023-02-14T17:57:12.658Z,76.04
2023-02-14T17:59:42.890Z,76.63
2023-02-14T18:02:15.023Z,76.50
2023-02-14T18:04:48.832Z,76.31
2023-02-14T18:07:19.270Z,76.87
2023-02-14T18:09:49.413Z,76.83
2023-02-14T18:12:19.316Z,76.83
2023-02-14T18:14:49.475Z,76.85
2023-02-14T18:17:19.639Z,76.56
2023-02-14T18:19:52.219Z,77.07
2023-02-14T18:22:25.229Z,77.46
2023-02-14T18:24:58.960Z,77.36
2023-02-14T18:27:29.108Z,77.47
2023-02-14T18:29:59.002Z,77.76
2023-02-14T18:32:28.923Z,77.89
2023-02-14T18:35:01.460Z,77.99
2023-02-14T18:37:31.350Z,77.96
2023-02-14T18:40:01.405Z,78.20
2023-02-14T18:42:31.658Z,77.55
2023-02-14T18:45:01.506Z,77.90
2023-02-14T18:47:31.330Z,77.69
2023-02-14T18:50:03.785Z,77.99
2023-02-14T18:52:33.981Z,77.88
2023-02-14T18:55:03.839Z,78.08
2023-02-14T18:57:34.204Z,78.12
2023-02-14T19:00:06.748Z,78.18
2023-02-14T19:02:37.285Z,78.50
2023-02-14T19:05:10.781Z,78.25
2023-02-14T19:07:40.647Z,78.29
2023-02-14T19:10:12.208Z,78.22
2023-02-14T19:12:42.134Z,78.33
2023-02-14T19:15:13.021Z,78.29
2023-02-14T19:17:42.970Z,78.66
2023-02-14T19:20:17.034Z,78.75
2023-02-14T19:22:46.864Z,78.81
2023-02-14T19:25:16.867Z,79.00
2023-02-14T19:27:49.410Z,79.23
2023-02-14T19:30:19.789Z,79.15
2023-02-14T19:32:50.276Z,79.25
2023-02-14T19:35:23.129Z,79.35
2023-02-14T19:37:55.445Z,79.68
2023-02-14T19:40:25.563Z,79.81
2023-02-14T19:42:55.495Z,79.49
2023-02-14T19:45:25.323Z,79.72
2023-02-14T19:47:55.193Z,79.87
2023-02-14T19:50:27.877Z,79.91
2023-02-14T19:52:57.919Z,80.01
2023-02-14T19:55:28.118Z,80.09
2023-02-14T19:57:57.958Z,79.80
2023-02-14T20:00:30.728Z,79.81
2023-02-14T20:03:03.416Z,80.11
2023-02-14T20:05:36.281Z,79.73
2023-02-14T20:08:06.376Z,79.83
2023-02-14T20:10:36.270Z,79.92
2023-02-14T20:13:06.060Z,80.12
2023-02-14T20:15:37.870Z,80.28
2023-02-14T20:18:08.050Z,80.53
2023-02-14T20:20:52.767Z,80.71
2023-02-14T20:23:22.580Z,80.66
2023-02-14T20:25:52.735Z,80.73
2023-02-14T20:28:22.641Z,80.78
2023-02-14T20:30:52.950Z,80.97
2023-02-14T20:33:22.914Z,80.85
2023-02-14T20:35:55.396Z,81.03
2023-02-14T20:38:25.483Z,80.77
2023-02-14T20:40:55.442Z,80.80
2023-02-14T20:43:26.784Z,81.06
2023-02-14T20:46:01.557Z,81.17
2023-02-14T20:48:31.815Z,81.29
2023-02-14T20:51:13.779Z,81.21
2023-02-14T20:53:44.462Z,81.40
2023-02-14T20:56:15.132Z,81.40
2023-02-14T20:58:45.517Z,81.72
2023-02-14T21:01:17.295Z,81.53
2023-02-14T21:03:50.809Z,81.42
2023-02-14T21:06:26.768Z,81.65
2023-02-14T21:08:57.167Z,81.71
2023-02-14T21:11:28.050Z,81.77
2023-02-14T21:13:59.940Z,81.35
2023-02-14T21:16:31.697Z,81.31
2023-02-14T21:19:02.854Z,81.48
2023-02-14T21:21:39.441Z,81.83
2023-02-14T21:24:12.027Z,81.78
2023-02-14T21:26:42.343Z,81.68
2023-02-14T21:29:13.409Z,81.69
2023-02-14T21:31:43.333Z,81.97
2023-02-14T21:34:13.490Z,82.09
2023-02-14T21:36:46.010Z,82.03
2023-02-14T21:39:16.797Z,82.10
2023-02-14T21:41:46.867Z,82.25
2023-02-14T21:44:40.821Z,82.50
2023-02-14T21:47:08.092Z,82.46
2023-02-14T21:49:50.522Z,82.57
2023-02-14T21:52:23.228Z,82.68
2023-02-14T21:54:53.482Z,82.75
2023-02-14T21:57:23.234Z,82.80
2023-02-14T21:59:53.360Z,82.88
2023-02-14T22:02:23.302Z,82.94
2023-02-14T22:04:53.168Z,82.88
2023-02-14T22:07:25.876Z,83.06
2023-02-14T22:09:55.672Z,83.05
2023-02-14T22:12:25.494Z,83.32
2023-02-14T22:14:55.741Z,83.29
2023-02-14T22:17:25.579Z,83.19
2023-02-14T22:19:55.491Z,83.45
2023-02-14T22:22:28.096Z,83.43
2023-02-14T22:24:58.121Z,83.46
2023-02-14T22:27:28.297Z,83.32
2023-02-14T22:29:58.133Z,83.65
2023-02-14T22:32:28.430Z,83.64
2023-02-14T22:34:58.250Z,83.66
2023-02-14T22:37:30.880Z,83.67
2023-02-14T22:40:00.968Z,83.48
2023-02-14T22:42:30.735Z,83.41
2023-02-14T22:45:00.522Z,83.45
2023-02-14T22:47:30.625Z,83.44
2023-02-14T22:50:01.425Z,83.31
2023-02-14T22:52:34.234Z,83.66
2023-02-14T22:55:04.366Z,83.47
2023-02-14T22:57:35.299Z,83.57
2023-02-14T23:00:05.055Z,83.64
2023-02-14T23:02:34.992Z,83.86
2023-02-14T23:05:05.149Z,83.92
2023-02-14T23:07:37.650Z,84.02
2023-02-14T23:10:11.478Z,84.13
2023-02-14T23:12:53.751Z,84.21
2023-02-14T23:15:35.949Z,84.08
2023-02-14T23:18:19.594Z,83.99
2023-02-14T23:21:02.001Z,84.16
2023-02-14T23:23:39.547Z,84.46
2023-02-14T23:26:09.426Z,84.64
2023-02-14T23:28:39.364Z,84.25
2023-02-14T23:31:09.285Z,84.38
2023-02-14T23:33:39.231Z,84.44
2023-02-14T23:36:09.246Z,84.69
2023-02-14T23:38:44.461Z,84.76
2023-02-14T23:41:26.897Z,84.48
2023-02-14T23:44:00.184Z,84.53
2023-02-14T23:46:29.949Z,84.62
2023-02-14T23:48:59.824Z,84.71
2023-02-14T23:51:29.767Z,85.02
2023-02-14T23:54:04.269Z,85.33
2023-02-14T23:56:34.642Z,85.41
2023-02-14T23:59:06.614Z,85.21
